createdAt,value
2023-03-17T04:47:10.260Z,99.90
2023-03-17T04:49:36.997Z,99.90
2023-03-17T04:52:03.875Z,99.90
2023-03-17T04:54:30.523Z,99.90
2023-03-17T04:56:57.348Z,99.90
2023-03-17T04:59:24.024Z,99.90
2023-03-17T05:01:51.281Z,99.90
2023-03-17T05:04:30.866Z,99.90
2023-03-17T05:06:58.505Z,99.90
2023-03-17T05:09:26.867Z,99.90
2023-03-17T05:11:53.828Z,99.90
2023-03-17T05:14:20.925Z,99.90
2023-03-17T05:16:48.818Z,99.90
2023-03-17T05:19:16.657Z,99.90
2023-03-17T05:21:43.623Z,99.90
2023-03-17T05:24:10.798Z,99.90
2023-03-17T05:26:38.584Z,99.90
2023-03-17T05:29:05.497Z,99.90
2023-03-17T05:31:32.261Z,99.90
2023-03-17T05:33:59.072Z,99.90
2023-03-17T05:36:25.883Z,99.90
2023-03-17T05:38:52.608Z,99.90
2023-03-17T05:41:19.728Z,99.90
2023-03-17T05:43:46.693Z,99.90
2023-03-17T05:46:13.728Z,99.90
2023-03-17T05:48:40.728Z,99.90
2023-03-17T05:51:08.022Z,99.90
2023-03-17T05:53:36.163Z,99.90
2023-03-17T05:56:03.586Z,99.90
2023-03-17T05:58:30.641Z,99.90
2023-03-17T06:00:57.417Z,99.90
2023-03-17T06:03:24.105Z,99.90
2023-03-17T06:05:50.798Z,99.90
2023-03-17T06:08:17.807Z,99.90
2023-03-17T06:10:44.550Z,99.90
2023-03-17T06:13:11.657Z,99.90
2023-03-17T06:15:38.421Z,99.90
2023-03-17T06:18:05.661Z,99.90
2023-03-17T06:20:33.865Z,99.90
2023-03-17T06:23:04.910Z,99.90
2023-03-17T06:25:32.856Z,99.90
2023-03-17T06:28:02.356Z,99.90
2023-03-17T06:30:29.831Z,99.90
2023-03-17T06:32:56.646Z,99.90
2023-03-17T06:35:23.474Z,99.90
2023-03-17T06:37:50.265Z,99.90
2023-03-17T06:40:17.114Z,99.90
2023-03-17T06:42:43.929Z,99.90
2023-03-17T06:45:11.966Z,99.90
2023-03-17T06:47:39.561Z,99.90
2023-03-17T06:50:11.352Z,99.90
2023-03-17T06:52:39.139Z,99.90
2023-03-17T06:55:07.140Z,99.90
2023-03-17T06:57:34.057Z,99.90
2023-03-17T07:00:00.663Z,99.90
2023-03-17T07:02:27.374Z,99.90
2023-03-17T07:04:54.201Z,99.90
2023-03-17T07:07:21.049Z,99.90
2023-03-17T07:09:47.978Z,99.90
2023-03-17T07:12:14.836Z,99.90
2023-03-17T07:14:41.699Z,99.90
2023-03-17T07:17:12.934Z,99.90
2023-03-17T07:19:40.643Z,99.90
2023-03-17T07:22:08.177Z,99.90
2023-03-17T07:24:34.784Z,99.90
2023-03-17T07:27:01.395Z,99.90
2023-03-17T07:29:29.151Z,99.90
2023-03-17T07:31:56.013Z,99.90
2023-03-17T07:34:23.088Z,99.90
2023-03-17T07:36:49.759Z,99.90
2023-03-17T07:39:16.601Z,99.90
2023-03-17T07:41:44.203Z,99.90
2023-03-17T07:44:11.369Z,99.90
2023-03-17T07:46:38.862Z,99.90
2023-03-17T07:49:06.188Z,99.90
2023-03-17T07:51:33.094Z,99.90
2023-03-17T07:54:03.891Z,99.90
2023-03-17T07:56:32.226Z,99.90
2023-03-17T07:58:59.231Z,99.90
2023-03-17T08:01:29.162Z,99.90
2023-03-17T08:03:56.601Z,99.90
2023-03-17T08:06:25.337Z,99.90
2023-03-17T08:08:53.860Z,99.90
2023-03-17T08:11:20.946Z,99.90
2023-03-17T08:13:48.190Z,99.90
2023-03-17T08:16:15.026Z,99.90
2023-03-17T08:18:41.953Z,99.40
2023-03-17T08:21:08.686Z,97.60
2023-03-17T08:23:35.658Z,95.90
2023-03-17T08:26:04.117Z,93.90
2023-03-17T08:28:31.744Z,92.20
2023-03-17T08:31:10.391Z,91.20
2023-03-17T08:33:39.894Z,89.60
2023-03-17T08:36:09.310Z,87.60
2023-03-17T08:38:40.832Z,87.20
2023-03-17T08:41:10.469Z,85.30
2023-03-17T08:43:37.347Z,83.10
2023-03-17T08:46:07.482Z,79.40
2023-03-17T08:48:36.435Z,76.50
2023-03-17T08:51:05.190Z,73.50
2023-03-17T08:53:34.841Z,68.90
2023-03-17T08:56:01.957Z,66.60
2023-03-17T08:58:29.140Z,64.40
2023-03-17T09:01:00.481Z,61.90
2023-03-17T09:03:27.904Z,59.20
2023-03-17T09:05:55.176Z,56.90
2023-03-17T09:08:22.613Z,54.10
2023-03-17T09:10:49.734Z,53.70
2023-03-17T09:13:16.421Z,52.60
2023-03-17T09:15:43.110Z,50.40
2023-03-17T09:18:10.531Z,49.00
2023-03-17T09:20:37.241Z,47.90
2023-03-17T09:23:08.885Z,46.10
2023-03-17T09:25:37.152Z,45.10
2023-03-17T09:28:04.077Z,45.90
2023-03-17T09:30:32.721Z,44.60
2023-03-17T09:33:00.707Z,43.80
2023-03-17T09:35:28.488Z,43.10
2023-03-17T09:37:55.562Z,42.50
2023-03-17T09:40:32.934Z,41.80
2023-03-17T09:43:06.180Z,41.70
2023-03-17T09:45:32.849Z,42.20
2023-03-17T09:48:14.365Z,42.00
2023-03-17T09:51:02.848Z,42.00
2023-03-17T09:53:51.323Z,41.20
2023-03-17T09:56:19.978Z,41.20
2023-03-17T09:59:39.328Z,41.80
2023-03-17T10:02:22.771Z,41.60
2023-03-17T10:04:50.107Z,41.10
2023-03-17T10:07:23.430Z,41.30
2023-03-17T10:09:58.625Z,41.40
2023-03-17T10:12:32.390Z,41.30
2023-03-17T10:15:03.961Z,43.50
2023-03-17T10:17:40.402Z,44.10
2023-03-17T10:20:18.398Z,44.20
2023-03-17T10:22:57.969Z,45.00
2023-03-17T10:25:29.162Z,45.40
2023-03-17T10:28:06.498Z,45.40
2023-03-17T10:30:35.324Z,46.80
2023-03-17T10:33:06.799Z,47.50
2023-03-17T10:35:36.277Z,46.90
2023-03-17T10:38:16.191Z,46.60
2023-03-17T10:40:47.805Z,45.90
2023-03-17T10:43:21.699Z,46.40
2023-03-17T10:46:22.127Z,46.10
2023-03-17T10:48:56.120Z,46.90
2023-03-17T10:51:36.838Z,46.80
2023-03-17T10:54:17.565Z,46.40
2023-03-17T10:56:48.654Z,47.20
2023-03-17T10:59:20.165Z,48.20
2023-03-17T11:01:52.910Z,48.70
2023-03-17T11:04:32.371Z,48.60
2023-03-17T11:07:05.132Z,47.40
2023-03-17T11:09:36.844Z,46.70
2023-03-17T11:12:06.892Z,46.30
2023-03-17T11:14:33.614Z,44.60
2023-03-17T11:17:15.235Z,44.20
2023-03-17T11:19:57.210Z,43.80
2023-03-17T11:22:40.469Z,43.70
2023-03-17T11:25:16.025Z,43.70
2023-03-17T11:28:18.837Z,43.00
2023-03-17T11:30:48.429Z,43.10
2023-03-17T11:33:36.163Z,43.20
2023-03-17T11:36:30.622Z,43.90
2023-03-17T11:38:59.609Z,44.70
2023-03-17T11:41:57.104Z,44.70
2023-03-17T11:44:51.610Z,45.10
2023-03-17T11:48:02.510Z,44.50
2023-03-17T11:51:13.693Z,45.00
2023-03-17T11:54:09.597Z,44.80
2023-03-17T11:56:54.215Z,44.80
2023-03-17T11:59:30.243Z,44.80
2023-03-17T12:02:19.728Z,44.70
2023-03-17T12:05:09.874Z,44.20
2023-03-17T12:07:44.810Z,44.30
2023-03-17T12:10:55.479Z,44.40
2023-03-17T12:13:35.512Z,44.00
2023-03-17T12:16:04.156Z,43.70
2023-03-17T12:19:01.799Z,43.80
2023-03-17T12:22:06.510Z,43.50
2023-03-17T12:24:39.836Z,43.40
2023-03-17T12:27:13.699Z,43.40
2023-03-17T12:29:51.652Z,42.60
2023-03-17T12:32:44.467Z,42.50
2023-03-17T12:35:20.106Z,41.80
2023-03-17T12:37:46.752Z,41.20
2023-03-17T12:40:20.143Z,40.60
2023-03-17T12:42:53.557Z,41.50
2023-03-17T12:45:35.290Z,41.50
2023-03-17T12:48:04.671Z,41.60
2023-03-17T12:50:48.552Z,42.30
2023-03-17T12:53:33.289Z,43.20
2023-03-17T12:56:27.841Z,42.20
2023-03-17T12:59:13.639Z,42.90
2023-03-17T13:01:46.314Z,43.40
2023-03-17T13:04:12.889Z,44.90
2023-03-17T13:06:45.019Z,43.50
2023-03-17T13:09:36.419Z,42.90
2023-03-17T13:12:06.596Z,43.30
2023-03-17T13:14:44.748Z,43.70
2023-03-17T13:17:17.817Z,44.30
2023-03-17T13:20:07.495Z,44.00
2023-03-17T13:22:41.324Z,42.80
2023-03-17T13:25:16.565Z,43.40
2023-03-17T13:27:45.981Z,44.50
2023-03-17T13:30:26.668Z,43.70
2023-03-17T13:33:12.865Z,43.50
2023-03-17T13:35:46.031Z,44.60
2023-03-17T13:38:33.370Z,46.30
2023-03-17T13:41:21.016Z,46.50
2023-03-17T13:44:04.934Z,46.50
2023-03-17T13:46:40.213Z,47.90
2023-03-17T13:49:32.132Z,47.80
2023-03-17T13:52:32.727Z,48.50
2023-03-17T13:55:25.492Z,48.50
2023-03-17T13:58:11.618Z,48.60
2023-03-17T14:00:41.518Z,49.90
2023-03-17T14:03:19.832Z,49.90
2023-03-17T14:05:50.212Z,50.10
2023-03-17T14:08:24.270Z,52.00
2023-03-17T14:10:55.753Z,51.90
2023-03-17T14:13:49.272Z,50.50
2023-03-17T14:16:24.310Z,50.40
2023-03-17T14:19:21.705Z,51.10
2023-03-17T14:21:48.814Z,53.10
2023-03-17T14:24:29.506Z,53.50
2023-03-17T14:26:56.599Z,54.10
2023-03-17T14:29:31.757Z,54.10
2023-03-17T14:32:13.662Z,54.30
2023-03-17T14:35:02.448Z,55.30
2023-03-17T14:37:29.114Z,56.30
2023-03-17T14:39:57.628Z,55.60
2023-03-17T14:42:30.342Z,55.50
2023-03-17T14:45:07.270Z,56.10
2023-03-17T14:47:43.303Z,56.60
2023-03-17T14:50:18.058Z,57.20
2023-03-17T14:52:45.212Z,57.00
2023-03-17T14:55:15.860Z,56.70
2023-03-17T14:57:47.565Z,57.00
2023-03-17T15:00:36.542Z,57.70
2023-03-17T15:03:15.374Z,58.10
2023-03-17T15:05:43.898Z,58.60
2023-03-17T15:08:41.357Z,59.20
2023-03-17T15:11:14.395Z,59.50
2023-03-17T15:13:41.094Z,60.00
2023-03-17T15:16:21.579Z,60.10
2023-03-17T15:18:54.903Z,59.90
2023-03-17T15:21:28.828Z,60.30
2023-03-17T15:23:55.659Z,60.10
2023-03-17T15:26:29.315Z,60.20
2023-03-17T15:28:57.993Z,59.50
2023-03-17T15:31:28.460Z,59.50
2023-03-17T15:33:56.161Z,59.40
2023-03-17T15:36:32.324Z,59.60
2023-03-17T15:38:59.263Z,59.70
2023-03-17T15:41:26.152Z,58.10
2023-03-17T15:43:53.590Z,58.80
2023-03-17T15:46:27.230Z,58.90
2023-03-17T15:48:54.044Z,59.00
2023-03-17T15:51:21.077Z,58.50
2023-03-17T15:53:47.834Z,59.00
2023-03-17T15:56:20.508Z,58.70
2023-03-17T15:58:49.229Z,58.40
2023-03-17T16:01:16.881Z,58.40
2023-03-17T16:03:45.316Z,57.90
2023-03-17T16:06:18.224Z,57.00
2023-03-17T16:08:45.633Z,56.80
2023-03-17T16:11:27.826Z,56.30
2023-03-17T16:13:56.023Z,56.00
2023-03-17T16:16:30.254Z,56.10
2023-03-17T16:18:57.924Z,56.90
2023-03-17T16:21:24.712Z,57.00
2023-03-17T16:23:51.361Z,58.00
2023-03-17T16:26:18.077Z,58.70
2023-03-17T16:28:46.281Z,58.90
2023-03-17T16:31:30.095Z,58.80
2023-03-17T16:33:56.941Z,58.80
2023-03-17T16:36:25.321Z,58.50
2023-03-17T16:38:52.422Z,62.20
2023-03-17T16:41:24.522Z,63.20
2023-03-17T16:43:55.137Z,63.20
2023-03-17T16:46:22.278Z,63.10
2023-03-17T16:48:49.650Z,66.60
2023-03-17T16:51:16.793Z,66.20
2023-03-17T16:53:43.838Z,68.20
2023-03-17T16:56:17.662Z,70.30
2023-03-17T16:58:45.304Z,69.30
2023-03-17T17:01:24.771Z,70.60
2023-03-17T17:03:51.714Z,72.20
2023-03-17T17:06:20.292Z,73.00
2023-03-17T17:08:48.230Z,73.10
2023-03-17T17:11:16.745Z,73.60
2023-03-17T17:13:46.047Z,73.20
2023-03-17T17:16:29.206Z,74.00
2023-03-17T17:18:56.618Z,75.40
2023-03-17T17:21:23.546Z,75.60
2023-03-17T17:23:52.681Z,76.40
2023-03-17T17:26:19.743Z,76.10
2023-03-17T17:28:46.440Z,76.80
2023-03-17T17:31:13.071Z,77.80
2023-03-17T17:33:40.232Z,79.20
2023-03-17T17:36:16.146Z,80.40
2023-03-17T17:38:43.352Z,81.10
2023-03-17T17:41:11.725Z,81.60
2023-03-17T17:43:38.479Z,81.90
2023-03-17T17:46:11.607Z,82.90
2023-03-17T17:48:38.276Z,83.70
2023-03-17T17:51:05.086Z,84.10
2023-03-17T17:53:31.730Z,84.70
2023-03-17T17:55:58.787Z,85.40
2023-03-17T17:58:26.482Z,86.20
2023-03-17T18:00:57.376Z,86.40
2023-03-17T18:03:25.778Z,86.80
2023-03-17T18:05:55.175Z,87.40
2023-03-17T18:08:23.589Z,88.10
2023-03-17T18:10:52.133Z,88.90
2023-03-17T18:13:19.258Z,89.70
2023-03-17T18:15:46.053Z,90.50
2023-03-17T18:18:12.672Z,90.60
2023-03-17T18:20:39.410Z,91.00
2023-03-17T18:23:06.074Z,90.90
2023-03-17T18:25:32.711Z,91.30
2023-03-17T18:28:01.390Z,91.50
2023-03-17T18:30:30.431Z,91.70
2023-03-17T18:33:02.689Z,92.50
2023-03-17T18:35:29.875Z,93.10
2023-03-17T18:37:57.586Z,93.00
2023-03-17T18:40:25.662Z,93.20
2023-03-17T18:42:52.509Z,94.20
2023-03-17T18:45:19.576Z,94.80
2023-03-17T18:47:46.371Z,95.20
2023-03-17T18:50:14.807Z,95.40
2023-03-17T18:52:42.486Z,95.50
2023-03-17T18:55:11.185Z,95.90
2023-03-17T18:57:38.272Z,96.60
2023-03-17T19:00:06.235Z,97.00
2023-03-17T19:02:33.263Z,97.90
2023-03-17T19:05:00.184Z,98.00
2023-03-17T19:07:26.802Z,98.50
2023-03-17T19:09:53.517Z,99.10
2023-03-17T19:12:20.393Z,99.80
2023-03-17T19:14:47.184Z,99.90
2023-03-17T19:17:13.790Z,99.90
2023-03-17T19:19:41.341Z,99.90
2023-03-17T19:22:09.469Z,99.90
2023-03-17T19:24:37.593Z,99.90
2023-03-17T19:27:04.985Z,99.90
2023-03-17T19:29:32.680Z,99.90
2023-03-17T19:31:59.461Z,99.90
2023-03-17T19:34:27.110Z,99.90
2023-03-17T19:36:53.864Z,99.90
2023-03-17T19:39:21.490Z,99.90
2023-03-17T19:41:49.968Z,99.90
2023-03-17T19:44:16.591Z,99.90
2023-03-17T19:46:43.262Z,99.90
2023-03-17T19:49:09.962Z,99.90
2023-03-17T19:51:36.715Z,99.90
2023-03-17T19:54:05.224Z,99.90
2023-03-17T19:56:31.997Z,99.90
2023-03-17T19:58:58.639Z,99.90
2023-03-17T20:01:25.664Z,99.90
2023-03-17T20:03:52.322Z,99.90
2023-03-17T20:06:19.058Z,99.90
2023-03-17T20:08:46.334Z,99.90
2023-03-17T20:11:13.465Z,99.90
2023-03-17T20:13:40.885Z,99.90
2023-03-17T20:16:08.673Z,99.90
2023-03-17T20:18:35.789Z,99.90
2023-03-17T20:21:05.617Z,99.90
2023-03-17T20:23:32.896Z,99.90
2023-03-17T20:25:59.652Z,99.90
2023-03-17T20:28:27.713Z,99.90
2023-03-17T20:30:59.819Z,99.90
2023-03-17T20:33:26.683Z,99.90
2023-03-17T20:35:53.621Z,99.90
2023-03-17T20:38:21.193Z,99.90
2023-03-17T20:40:47.793Z,99.90
2023-03-17T20:43:14.746Z,99.90
2023-03-17T20:45:41.574Z,99.90
2023-03-17T20:48:10.592Z,99.90
2023-03-17T20:50:38.584Z,99.90
2023-03-17T20:53:05.260Z,99.90
2023-03-17T20:55:31.907Z,99.90
2023-03-17T20:57:59.604Z,99.90
2023-03-17T21:00:26.309Z,99.90
2023-03-17T21:02:53.145Z,99.90
2023-03-17T21:05:25.566Z,99.90
2023-03-17T21:07:52.574Z,99.90
2023-03-17T21:10:19.563Z,99.90
2023-03-17T21:12:46.402Z,99.90
2023-03-17T21:15:14.107Z,99.90
2023-03-17T21:17:42.157Z,99.90
2023-03-17T21:20:11.928Z,99.90
2023-03-17T21:22:39.848Z,99.90
2023-03-17T21:25:08.622Z,99.90
2023-03-17T21:27:37.593Z,99.90
2023-03-17T21:30:11.923Z,99.90
2023-03-17T21:32:39.398Z,99.90
2023-03-17T21:35:07.773Z,99.90
2023-03-17T21:37:35.176Z,99.90
2023-03-17T21:40:01.941Z,99.90
2023-03-17T21:42:28.992Z,99.90
2023-03-17T21:44:55.594Z,99.90
2023-03-17T21:47:22.196Z,99.90
2023-03-17T21:49:48.827Z,99.90
2023-03-17T21:52:15.600Z,99.90
2023-03-17T21:54:42.365Z,99.90
2023-03-17T21:57:09.239Z,99.90
2023-03-17T21:59:36.168Z,99.90
2023-03-17T22:02:03.520Z,99.90
2023-03-17T22:04:30.244Z,99.90
2023-03-17T22:06:58.828Z,99.90
2023-03-17T22:09:25.988Z,99.90
2023-03-17T22:11:52.690Z,99.90
2023-03-17T22:14:20.790Z,99.90
2023-03-17T22:16:49.835Z,99.90
2023-03-17T22:19:18.163Z,99.90
2023-03-17T22:21:46.012Z,99.90
2023-03-17T22:24:12.829Z,99.90
2023-03-17T22:26:39.494Z,99.90
2023-03-17T22:29:06.221Z,99.90
2023-03-17T22:31:34.573Z,99.90
2023-03-17T22:34:02.155Z,99.90
2023-03-17T22:36:29.920Z,99.90
2023-03-17T22:38:57.351Z,99.90
2023-03-17T22:41:27.000Z,99.90
2023-03-17T22:43:53.875Z,99.90
2023-03-17T22:46:21.644Z,99.90
2023-03-17T22:48:48.894Z,99.90
2023-03-17T22:51:19.316Z,99.90
2023-03-17T22:53:46.472Z,99.90
2023-03-17T22:56:14.694Z,99.90
2023-03-17T22:58:42.287Z,99.90
2023-03-17T23:01:12.178Z,99.90
2023-03-17T23:03:39.322Z,99.90
2023-03-17T23:06:07.428Z,99.90
2023-03-17T23:08:36.614Z,99.90
2023-03-17T23:11:10.452Z,99.90
2023-03-17T23:13:37.861Z,99.90
2023-03-17T23:16:04.829Z,99.90
2023-03-17T23:18:31.805Z,99.90
2023-03-17T23:20:59.422Z,99.90
2023-03-17T23:23:26.040Z,99.90
2023-03-17T23:25:52.716Z,99.90
2023-03-17T23:28:20.520Z,99.90
2023-03-17T23:30:47.456Z,99.90
2023-03-17T23:33:17.203Z,99.90
2023-03-17T23:35:44.627Z,99.90
2023-03-17T23:38:11.339Z,99.90
2023-03-17T23:40:38.006Z,99.90
2023-03-17T23:43:05.530Z,99.90
2023-03-17T23:45:34.287Z,99.90
2023-03-17T23:48:01.595Z,99.90
2023-03-17T23:50:28.227Z,99.90
2023-03-17T23:52:54.878Z,99.90
2023-03-17T23:55:21.518Z,99.90
2023-03-17T23:57:49.178Z,99.90
